Hikarimaru No.17 — JD2956 — position and weather

sailwx.info

Track history (hours):
 
Tides and Currents Weather Stations Pressure Air Temp Water Temp Dewpoint Dewpoint Depression Visibility Wind Speed Wind Dir Waves Ship Positions

Hikarimaru No.17

Last reported at 2017-Nov-19 19:43 UTC. Time now 2017-Nov-20 17:11 UTC.
Position N 33°59' E 135°00'.

Length 105 m; draft 5.5 m.

Type: Tanker. MMSI: 431000984.

Date/timePositionNaut miles runAvg speedWind from/ knotsBaromVisibWave heightAir tempDewpointWater temp
2017-Nov-19 19:43N 33°59' E 135°00'313.4
2017-Nov-19 19:30N 34°02' E 134°60'713.4
2017-Nov-19 19:00N 34°08' E 134°59'815.3
2017-Nov-19 18:30N 34°16' E 134°59'714.1
2017-Nov-19 18:00N 34°23' E 134°60'713.9
2017-Nov-19 17:29N 34°30' E 135°02'713.8
2017-Nov-19 17:00N 34°37' E 135°01'815.5
2017-Nov-19 16:30N 34°34' E 134°52'  
2017-Nov-11 06:35N 34°37' E 134°56'214.6
2017-Nov-11 06:29N 34°37' E 134°58'613.8
2017-Nov-11 06:00N 34°35' E 135°05'612.8
2017-Nov-11 05:30N 34°36' E 135°13'712.9
2017-Nov-11 05:00N 34°36' E 135°21'4 8.6
2017-Nov-11 04:31N 34°35' E 135°26'0 0.0
2017-Nov-10 22:27N 34°35' E 135°25'3 6.4
2017-Nov-10 22:00N 34°36' E 135°23'1 1.6
2017-Nov-10 21:28N 34°36' E 135°22'0 0.0
2017-Nov-10 20:58N 34°36' E 135°22'0 0.0
2017-Nov-10 20:28N 34°36' E 135°22'0 0.0
2017-Nov-10 19:58N 34°36' E 135°22'0 0.0
2017-Nov-10 19:28N 34°36' E 135°22'0 0.0
2017-Nov-10 18:58N 34°36' E 135°22'0 0.1
2017-Nov-10 18:28N 34°36' E 135°22'0 0.1
2017-Nov-10 17:58N 34°36' E 135°22'0 0.0
2017-Nov-10 17:28N 34°36' E 135°22'0 0.0
2017-Nov-10 16:58N 34°36' E 135°22'0 0.1
2017-Nov-10 16:10N 34°35' E 135°22'0 0.0
2017-Nov-10 15:58N 34°35' E 135°22'0 0.0
2017-Nov-10 15:10N 34°35' E 135°22'0 0.2
2017-Nov-10 14:56N 34°35' E 135°22'4 8.1
2017-Nov-10 14:30N 34°35' E 135°18'713.4
2017-Nov-10 14:00N 34°35' E 135°10'713.4
2017-Nov-10 13:30N 34°36' E 135°02'  
Track history (hours):
 
Tides and Currents Weather Stations Pressure Air Temp Water Temp Dewpoint Dewpoint Depression Visibility Wind Speed Wind Dir Waves Ship Positions

Hikarimaru No.17

Last reported at 2017-Nov-19 19:43 UTC. Time now 2017-Nov-20 17:11 UTC.
Position N 33°59' E 135°00'.

Length 105 m; draft 5.5 m.

Type: Tanker. MMSI: 431000984.

Date/timePositionNaut miles runAvg speedWind from/ knotsBaromVisibWave heightAir tempDewpointWater temp
2017-Nov-19 19:43N 33°59' E 135°00'313.4
2017-Nov-19 19:30N 34°02' E 134°60'713.4
2017-Nov-19 19:00N 34°08' E 134°59'815.3
2017-Nov-19 18:30N 34°16' E 134°59'714.1
2017-Nov-19 18:00N 34°23' E 134°60'713.9
2017-Nov-19 17:29N 34°30' E 135°02'713.8
2017-Nov-19 17:00N 34°37' E 135°01'815.5
2017-Nov-19 16:30N 34°34' E 134°52'  
2017-Nov-11 06:35N 34°37' E 134°56'214.6
2017-Nov-11 06:29N 34°37' E 134°58'613.8
2017-Nov-11 06:00N 34°35' E 135°05'612.8
2017-Nov-11 05:30N 34°36' E 135°13'712.9
2017-Nov-11 05:00N 34°36' E 135°21'4 8.6
2017-Nov-11 04:31N 34°35' E 135°26'0 0.0
2017-Nov-10 22:27N 34°35' E 135°25'3 6.4
2017-Nov-10 22:00N 34°36' E 135°23'1 1.6
2017-Nov-10 21:28N 34°36' E 135°22'0 0.0
2017-Nov-10 20:58N 34°36' E 135°22'0 0.0
2017-Nov-10 20:28N 34°36' E 135°22'0 0.0
2017-Nov-10 19:58N 34°36' E 135°22'0 0.0
2017-Nov-10 19:28N 34°36' E 135°22'0 0.0
2017-Nov-10 18:58N 34°36' E 135°22'0 0.1
2017-Nov-10 18:28N 34°36' E 135°22'0 0.1
2017-Nov-10 17:58N 34°36' E 135°22'0 0.0
2017-Nov-10 17:28N 34°36' E 135°22'0 0.0
2017-Nov-10 16:58N 34°36' E 135°22'0 0.1
2017-Nov-10 16:10N 34°35' E 135°22'0 0.0
2017-Nov-10 15:58N 34°35' E 135°22'0 0.0
2017-Nov-10 15:10N 34°35' E 135°22'0 0.2
2017-Nov-10 14:56N 34°35' E 135°22'4 8.1
2017-Nov-10 14:30N 34°35' E 135°18'713.4
2017-Nov-10 14:00N 34°35' E 135°10'713.4
2017-Nov-10 13:30N 34°36' E 135°02'  

Dump ship's entire track history